createdAt,value
2017-02-24T00:00:07.598Z,51.91
2017-02-24T00:01:08.290Z,51.88
2017-02-24T00:02:07.836Z,51.86
2017-02-24T00:03:08.455Z,51.79
2017-02-24T00:04:08.040Z,51.87
2017-02-24T00:05:07.575Z,52.11
2017-02-24T00:06:08.143Z,52.28
2017-02-24T00:07:07.663Z,52.38
2017-02-24T00:08:08.177Z,52.47
2017-02-24T00:09:07.708Z,52.54
2017-02-24T00:10:08.278Z,52.60
2017-02-24T00:11:07.785Z,52.72
2017-02-24T00:12:08.384Z,52.45
2017-02-24T00:13:08.845Z,52.46
2017-02-24T00:14:08.454Z,52.89
2017-02-24T00:15:08.027Z,52.85
2017-02-24T00:16:07.506Z,53.03
2017-02-24T00:17:08.407Z,53.04
2017-02-24T00:18:07.958Z,53.19
2017-02-24T00:19:07.522Z,53.22
2017-02-24T00:20:08.045Z,53.62
2017-02-24T00:21:07.589Z,53.84
2017-02-24T00:22:08.111Z,53.83
2017-02-24T00:23:07.872Z,54.11
2017-02-24T00:24:08.570Z,54.26
2017-02-24T00:25:08.189Z,54.29
2017-02-24T00:26:07.741Z,54.25
2017-02-24T00:27:08.216Z,54.17
2017-02-24T00:28:07.719Z,54.42
2017-02-24T00:29:08.332Z,54.48
2017-02-24T00:30:07.863Z,54.53
2017-02-24T00:31:08.424Z,54.37
2017-02-24T00:32:07.957Z,54.51
2017-02-24T00:33:07.455Z,54.79
2017-02-24T00:34:08.213Z,54.77
2017-02-24T00:35:08.041Z,54.71
2017-02-24T00:36:07.698Z,54.62
2017-02-24T00:37:08.222Z,54.55
2017-02-24T00:38:07.838Z,54.71
2017-02-24T00:39:08.467Z,54.63
2017-02-24T00:40:08.066Z,54.58
2017-02-24T00:41:07.579Z,55.06
2017-02-24T00:42:08.173Z,54.94
2017-02-24T00:43:07.753Z,55.07
2017-02-24T00:44:08.449Z,55.35
2017-02-24T00:45:08.170Z,55.40
2017-02-24T00:46:07.766Z,55.29
2017-02-24T00:47:08.298Z,55.14
2017-02-24T00:48:08.116Z,55.22
2017-02-24T00:49:07.616Z,55.31
2017-02-24T00:50:08.197Z,55.41
2017-02-24T00:51:07.833Z,55.37
2017-02-24T00:52:08.403Z,55.32
2017-02-24T00:53:08.005Z,55.26
2017-02-24T00:54:07.584Z,55.04
2017-02-24T00:55:08.296Z,55.23
2017-02-24T00:56:07.803Z,55.13
2017-02-24T00:57:08.393Z,55.34
2017-02-24T00:58:08.681Z,55.22
2017-02-24T00:59:08.252Z,55.42
2017-02-24T01:00:08.036Z,55.58
2017-02-24T01:01:07.508Z,55.74
2017-02-24T01:02:08.204Z,55.63
2017-02-24T01:03:07.857Z,55.63
2017-02-24T01:04:08.419Z,55.59
2017-02-24T01:05:07.912Z,55.34
2017-02-24T01:06:08.370Z,55.58
2017-02-24T01:07:08.262Z,56.19
2017-02-24T01:08:07.478Z,58.36
2017-02-24T01:09:08.054Z,57.87
2017-02-24T01:10:07.743Z,58.00
2017-02-24T01:11:08.554Z,58.37
2017-02-24T01:12:08.169Z,60.17
2017-02-24T01:13:07.908Z,61.55
2017-02-24T01:14:08.514Z,61.64
2017-02-24T01:15:08.039Z,62.13
2017-02-24T01:16:07.523Z,62.06
2017-02-24T01:17:07.715Z,62.39
2017-02-24T01:18:08.469Z,64.86
2017-02-24T01:19:08.174Z,65.46
2017-02-24T01:20:08.769Z,68.23
2017-02-24T01:21:08.313Z,67.08
2017-02-24T01:22:07.855Z,68.42
2017-02-24T01:23:07.585Z,68.11
2017-02-24T01:24:08.074Z,67.58
2017-02-24T01:25:07.529Z,68.37
2017-02-24T01:26:08.168Z,67.87
2017-02-24T01:27:07.947Z,68.71
2017-02-24T01:28:07.467Z,70.22
2017-02-24T01:29:08.078Z,69.95
2017-02-24T01:30:07.648Z,70.42
2017-02-24T01:31:08.416Z,70.16
2017-02-24T01:32:07.948Z,70.43
2017-02-24T01:33:07.763Z,70.97
2017-02-24T01:34:08.536Z,71.31
2017-02-24T01:35:08.158Z,71.46
2017-02-24T01:36:07.662Z,71.27
2017-02-24T01:37:08.345Z,71.61
2017-02-24T01:38:08.075Z,72.12
2017-02-24T01:39:07.623Z,73.32
2017-02-24T01:40:08.291Z,73.91
2017-02-24T01:41:07.861Z,73.22
2017-02-24T01:42:07.592Z,72.54
2017-02-24T01:43:08.246Z,73.33
2017-02-24T01:44:07.694Z,74.77
2017-02-24T01:45:08.258Z,75.26
2017-02-24T01:46:07.856Z,75.58
2017-02-24T01:47:08.333Z,75.41
2017-02-24T01:48:07.916Z,76.80
2017-02-24T01:49:07.543Z,77.67
2017-02-24T01:50:08.385Z,78.02
2017-02-24T01:51:07.909Z,77.00
2017-02-24T01:52:08.512Z,75.88
2017-02-24T01:53:08.126Z,76.17
2017-02-24T01:54:07.819Z,76.88
2017-02-24T01:55:08.486Z,77.06
2017-02-24T01:56:08.053Z,77.72
2017-02-24T01:57:07.562Z,76.87
2017-02-24T01:58:08.477Z,78.78
2017-02-24T01:59:08.160Z,78.00
2017-02-24T02:00:07.756Z,78.42
2017-02-24T02:01:08.368Z,77.98
2017-02-24T02:02:08.206Z,78.25
2017-02-24T02:03:07.732Z,77.12
2017-02-24T02:04:08.253Z,78.79
2017-02-24T02:05:07.813Z,78.91
2017-02-24T02:06:08.449Z,79.11
2017-02-24T02:07:07.982Z,84.78
2017-02-24T02:08:07.764Z,83.66
2017-02-24T02:09:08.352Z,84.13
2017-02-24T02:10:07.904Z,81.99
2017-02-24T02:11:08.432Z,80.09
2017-02-24T02:12:08.051Z,80.13
2017-02-24T02:13:07.561Z,80.27
2017-02-24T02:14:08.153Z,80.30
2017-02-24T02:15:07.748Z,81.17
2017-02-24T02:16:08.373Z,78.36
2017-02-24T02:17:08.051Z,80.48
2017-02-24T02:18:07.641Z,79.80
2017-02-24T02:19:08.180Z,80.53
2017-02-24T02:20:07.705Z,78.31
2017-02-24T02:21:08.390Z,77.15
2017-02-24T02:22:08.255Z,79.10
2017-02-24T02:23:07.781Z,79.53
2017-02-24T02:24:08.476Z,77.56
2017-02-24T02:25:08.005Z,78.21
2017-02-24T02:26:07.435Z,78.11
2017-02-24T02:27:08.010Z,77.49
2017-02-24T02:28:07.865Z,76.38
2017-02-24T02:29:08.511Z,76.41
2017-02-24T02:30:08.061Z,74.71
2017-02-24T02:31:07.695Z,74.22
2017-02-24T02:32:08.554Z,76.06
2017-02-24T02:33:08.095Z,76.35
2017-02-24T02:34:07.751Z,73.50
2017-02-24T02:35:08.339Z,75.17
2017-02-24T02:36:08.152Z,74.81
2017-02-24T02:37:07.664Z,75.23
2017-02-24T02:38:08.243Z,74.19
2017-02-24T02:39:07.786Z,74.61
2017-02-24T02:40:08.327Z,74.00
2017-02-24T02:41:07.942Z,73.70
2017-02-24T02:42:07.698Z,72.77
2017-02-24T02:43:19.750Z,72.30
2017-02-24T02:44:08.283Z,72.29
2017-02-24T02:45:07.828Z,71.61
2017-02-24T02:46:08.290Z,73.08
2017-02-24T02:47:07.860Z,73.05
2017-02-24T02:48:08.470Z,72.50
2017-02-24T02:49:08.005Z,72.90
2017-02-24T02:50:07.926Z,70.07
2017-02-24T02:51:07.523Z,69.99
2017-02-24T02:52:08.104Z,69.60
2017-02-24T02:53:07.641Z,69.32
2017-02-24T02:54:08.227Z,71.23
2017-02-24T02:55:07.844Z,69.56
2017-02-24T02:56:08.463Z,70.50
2017-02-24T02:57:08.035Z,70.74
2017-02-24T02:58:07.642Z,69.81
2017-02-24T02:59:08.337Z,69.41
2017-02-24T03:00:07.855Z,68.87
2017-02-24T03:01:08.521Z,69.12
2017-02-24T03:02:08.224Z,67.31
2017-02-24T03:03:07.800Z,66.54
2017-02-24T03:04:08.371Z,68.11
2017-02-24T03:05:07.981Z,66.66
2017-02-24T03:06:07.535Z,67.02
2017-02-24T03:07:08.118Z,66.34
2017-02-24T03:08:07.685Z,67.09
2017-02-24T03:09:08.268Z,65.94
2017-02-24T03:10:07.794Z,66.06
2017-02-24T03:11:08.407Z,65.47
2017-02-24T03:12:08.022Z,66.86
2017-02-24T03:13:07.555Z,66.38
2017-02-24T03:14:08.166Z,66.16
2017-02-24T03:15:07.984Z,66.14
2017-02-24T03:16:07.502Z,66.08
2017-02-24T03:17:08.107Z,67.06
2017-02-24T03:18:07.683Z,64.53
2017-02-24T03:19:08.189Z,64.94
2017-02-24T03:20:07.732Z,65.09
2017-02-24T03:21:08.318Z,65.18
2017-02-24T03:22:07.799Z,64.28
2017-02-24T03:23:08.363Z,64.43
2017-02-24T03:24:08.047Z,64.16
2017-02-24T03:25:07.881Z,64.35
2017-02-24T03:26:08.716Z,63.83
2017-02-24T03:27:08.334Z,63.94
2017-02-24T03:28:08.360Z,63.88
2017-02-24T03:29:07.943Z,62.60
2017-02-24T03:30:07.613Z,62.42
2017-02-24T03:31:08.238Z,62.35
2017-02-24T03:32:07.806Z,62.12
2017-02-24T03:33:08.367Z,61.87
2017-02-24T03:34:07.823Z,62.53
2017-02-24T03:35:08.341Z,62.62
2017-02-24T03:36:07.918Z,61.24
2017-02-24T03:37:07.532Z,61.13
2017-02-24T03:38:08.147Z,61.69
2017-02-24T03:39:07.623Z,61.46
2017-02-24T03:40:08.655Z,62.18
2017-02-24T03:41:08.614Z,61.28
2017-02-24T03:42:08.143Z,60.42
2017-02-24T03:43:07.775Z,61.20
2017-02-24T03:44:08.329Z,61.23
2017-02-24T03:45:07.978Z,61.14
2017-02-24T03:46:07.536Z,60.70
2017-02-24T03:47:08.119Z,61.48
2017-02-24T03:48:07.779Z,61.11
2017-02-24T03:49:08.345Z,59.81
2017-02-24T03:50:08.206Z,59.84
2017-02-24T03:51:07.752Z,59.65
2017-02-24T03:52:08.291Z,59.71
2017-02-24T03:53:07.866Z,59.49
2017-02-24T03:54:08.543Z,59.45
2017-02-24T03:55:08.094Z,60.07
2017-02-24T03:56:07.624Z,59.98
2017-02-24T03:57:08.242Z,59.10
2017-02-24T03:58:08.081Z,59.60
2017-02-24T03:59:07.608Z,59.82
2017-02-24T04:00:08.323Z,59.53
2017-02-24T04:01:07.836Z,59.68
2017-02-24T04:02:08.422Z,59.68
2017-02-24T04:03:08.074Z,59.63
2017-02-24T04:04:07.605Z,59.55
2017-02-24T04:05:08.184Z,59.47
2017-02-24T04:06:07.711Z,59.68
2017-02-24T04:07:08.680Z,59.13
2017-02-24T04:08:08.425Z,59.68
2017-02-24T04:09:08.161Z,59.10
2017-02-24T04:10:07.650Z,59.10
2017-02-24T04:11:08.181Z,59.14
2017-02-24T04:12:07.703Z,58.94
2017-02-24T04:13:08.492Z,59.46
2017-02-24T04:14:08.104Z,59.67
2017-02-24T04:15:07.676Z,59.56
2017-02-24T04:16:08.344Z,59.81
2017-02-24T04:17:07.973Z,59.41
2017-02-24T04:18:07.576Z,58.85
2017-02-24T04:19:08.148Z,59.71
2017-02-24T04:20:07.765Z,59.49
2017-02-24T04:21:08.407Z,60.36
2017-02-24T04:22:07.948Z,60.66
2017-02-24T04:23:07.481Z,60.89
2017-02-24T04:24:08.127Z,59.37
2017-02-24T04:25:07.638Z,59.53
2017-02-24T04:26:08.206Z,59.58
2017-02-24T04:27:07.688Z,59.04
2017-02-24T04:28:08.274Z,59.72
2017-02-24T04:29:07.824Z,60.03
2017-02-24T04:30:08.452Z,59.90
2017-02-24T04:31:07.987Z,59.50
2017-02-24T04:32:07.530Z,59.34
2017-02-24T04:33:08.090Z,59.22
2017-02-24T04:34:07.577Z,58.94
2017-02-24T04:35:08.165Z,59.09
2017-02-24T04:36:07.738Z,58.87
2017-02-24T04:37:08.309Z,59.19
2017-02-24T04:38:07.936Z,59.61
2017-02-24T04:39:07.449Z,59.36
2017-02-24T04:40:08.067Z,59.21
2017-02-24T04:41:40.109Z,59.29
2017-02-24T04:42:07.605Z,58.90
2017-02-24T04:43:08.132Z,59.19
2017-02-24T04:44:07.675Z,58.94
2017-02-24T04:45:08.254Z,58.95
2017-02-24T04:46:07.818Z,58.52
2017-02-24T04:47:08.425Z,58.73
2017-02-24T04:48:08.047Z,59.04
2017-02-24T04:49:07.618Z,58.97
2017-02-24T04:50:08.295Z,58.89
2017-02-24T04:51:08.183Z,58.73
2017-02-24T04:52:07.739Z,58.35
2017-02-24T04:53:08.379Z,58.95
2017-02-24T04:54:08.094Z,58.15
2017-02-24T04:55:07.918Z,58.29
2017-02-24T04:56:07.438Z,58.83
2017-02-24T04:57:08.107Z,59.28
2017-02-24T04:58:07.735Z,58.61
2017-02-24T04:59:08.358Z,58.83
2017-02-24T05:00:07.900Z,58.33
2017-02-24T05:01:08.476Z,58.80
2017-02-24T05:02:09.306Z,59.56
2017-02-24T05:03:07.947Z,60.58
2017-02-24T05:04:07.497Z,60.46
2017-02-24T05:05:08.094Z,58.68
2017-02-24T05:06:07.649Z,59.16
2017-02-24T05:07:08.184Z,59.24
2017-02-24T05:08:07.770Z,59.14
2017-02-24T05:09:08.354Z,58.98
2017-02-24T05:10:07.844Z,58.95
2017-02-24T05:12:08.236Z,58.48
2017-02-24T05:12:11.630Z,58.38
2017-02-24T05:13:08.261Z,57.93
2017-02-24T05:14:07.966Z,58.27
2017-02-24T05:15:07.467Z,58.87
2017-02-24T05:16:08.274Z,59.05
2017-02-24T05:17:08.054Z,58.72
2017-02-24T05:18:07.719Z,58.67
2017-02-24T05:19:08.236Z,57.93
2017-02-24T05:20:07.708Z,57.65
2017-02-24T05:21:08.311Z,57.91
2017-02-24T05:22:07.940Z,58.35
2017-02-24T05:23:07.556Z,58.05
2017-02-24T05:24:08.319Z,58.42
2017-02-24T05:25:10.692Z,57.78
2017-02-24T05:26:07.486Z,57.58
2017-02-24T05:27:08.128Z,57.35
2017-02-24T05:28:07.729Z,56.98
2017-02-24T05:29:08.377Z,56.73
2017-02-24T05:30:07.988Z,56.50
2017-02-24T05:31:07.622Z,56.13
2017-02-24T05:32:08.202Z,55.69
2017-02-24T05:33:08.006Z,56.62
2017-02-24T05:34:07.558Z,55.73
2017-02-24T05:35:08.179Z,54.78
2017-02-24T05:36:07.828Z,54.90
2017-02-24T05:37:08.391Z,54.71
2017-02-24T05:38:08.014Z,54.20
2017-02-24T05:39:07.526Z,54.80
2017-02-24T05:40:08.123Z,54.63
2017-02-24T05:41:08.067Z,54.84
2017-02-24T05:42:09.613Z,55.11
2017-02-24T05:43:08.307Z,55.66
2017-02-24T05:44:07.945Z,55.55
2017-02-24T05:45:07.466Z,56.54
2017-02-24T05:46:08.215Z,55.78
2017-02-24T05:47:07.885Z,56.34
2017-02-24T05:48:08.501Z,54.73
2017-02-24T05:49:08.035Z,55.15
2017-02-24T05:50:07.629Z,55.52
2017-02-24T05:51:08.186Z,55.81
2017-02-24T05:52:07.721Z,56.22
2017-02-24T05:53:08.389Z,55.93
2017-02-24T05:54:08.064Z,56.37
2017-02-24T05:55:07.659Z,55.64
2017-02-24T05:56:08.231Z,56.23
2017-02-24T05:57:07.877Z,55.18
2017-02-24T05:58:08.562Z,55.28
2017-02-24T05:59:08.091Z,55.55
2017-02-24T06:00:07.675Z,55.01
2017-02-24T06:01:08.248Z,55.05
2017-02-24T06:02:07.802Z,54.67
2017-02-24T06:03:08.440Z,55.01
2017-02-24T06:04:07.953Z,55.24
2017-02-24T06:05:07.420Z,55.38
2017-02-24T06:06:07.866Z,55.53
2017-02-24T06:07:07.711Z,55.99
2017-02-24T06:08:08.360Z,56.24
2017-02-24T06:09:08.028Z,56.22
2017-02-24T06:10:07.532Z,56.35
2017-02-24T06:11:08.048Z,57.51
2017-02-24T06:12:07.617Z,57.50
2017-02-24T06:13:08.237Z,58.61
2017-02-24T06:14:07.836Z,59.81
2017-02-24T06:15:08.441Z,59.74
2017-02-24T06:16:07.998Z,59.96
2017-02-24T06:17:07.758Z,60.69
2017-02-24T06:18:08.354Z,60.78
2017-02-24T06:19:07.970Z,61.25
2017-02-24T06:20:08.125Z,61.00
2017-02-24T06:21:07.705Z,60.43
2017-02-24T06:22:08.310Z,61.62
2017-02-24T06:23:07.927Z,62.43
2017-02-24T06:24:07.603Z,62.17
2017-02-24T06:25:08.236Z,61.30
2017-02-24T06:26:07.744Z,61.93
2017-02-24T06:27:08.492Z,62.53
2017-02-24T06:28:08.031Z,62.24
2017-02-24T06:29:07.680Z,61.76
2017-02-24T06:30:08.692Z,61.39
2017-02-24T06:31:08.331Z,61.20
2017-02-24T06:32:07.960Z,61.61
2017-02-24T06:33:07.543Z,62.21
2017-02-24T06:34:08.100Z,62.06
2017-02-24T06:35:07.633Z,61.77
2017-02-24T06:36:13.784Z,61.71
2017-02-24T06:37:08.359Z,61.95
2017-02-24T06:38:07.866Z,61.79
2017-02-24T06:39:08.389Z,61.14
2017-02-24T06:40:08.283Z,61.63
2017-02-24T06:41:07.991Z,61.56
2017-02-24T06:42:07.614Z,62.00
2017-02-24T06:43:08.229Z,62.16
2017-02-24T06:44:07.789Z,62.57
2017-02-24T06:45:08.464Z,62.48
2017-02-24T06:46:08.154Z,62.40
2017-02-24T06:47:07.734Z,61.92
2017-02-24T06:50:31.028Z,63.79
2017-02-24T06:51:23.289Z,63.19
2017-02-24T06:52:31.531Z,62.95
2017-02-24T06:53:31.968Z,63.09
2017-02-24T06:54:22.775Z,63.34
2017-02-24T06:55:23.729Z,62.99
2017-02-24T06:56:24.464Z,62.84
2017-02-24T06:57:23.560Z,63.39
2017-02-24T06:58:29.088Z,62.67
2017-02-24T06:59:17.931Z,62.66
2017-02-24T07:00:24.875Z,62.35
2017-02-24T07:01:19.623Z,61.90
2017-02-24T07:02:23.453Z,61.21
2017-02-24T07:03:28.778Z,57.54
2017-02-24T07:04:23.651Z,57.64
2017-02-24T07:05:24.012Z,53.91
2017-02-24T07:06:34.190Z,53.50
2017-02-24T07:07:23.521Z,52.68
2017-02-24T07:08:23.517Z,51.60
2017-02-24T07:09:24.964Z,50.11
2017-02-24T07:10:37.372Z,49.89
2017-02-24T07:11:23.391Z,49.57
2017-02-24T07:12:22.936Z,49.14
2017-02-24T07:13:50.160Z,48.12
2017-02-24T07:14:33.057Z,48.12
2017-02-24T07:15:31.220Z,48.37
2017-02-24T07:16:38.246Z,48.02
2017-02-24T07:17:34.244Z,48.36
2017-02-24T07:18:38.737Z,48.03
2017-02-24T07:19:39.490Z,47.44
2017-02-24T07:20:28.681Z,47.80
2017-02-24T07:21:28.833Z,47.72
2017-02-24T07:23:28.684Z,47.59
2017-02-24T07:24:39.010Z,47.43
2017-02-24T07:25:38.602Z,47.67
2017-02-24T07:26:28.703Z,47.49
2017-02-24T07:27:29.625Z,47.38
2017-02-24T07:28:38.473Z,47.29
2017-02-24T07:29:28.582Z,46.52
2017-02-24T07:30:28.825Z,47.80
2017-02-24T07:31:29.869Z,48.04
2017-02-24T07:32:36.823Z,47.87
2017-02-24T07:33:33.208Z,48.01
2017-02-24T07:34:23.108Z,48.00
2017-02-24T07:35:24.113Z,47.45
2017-02-24T07:36:23.305Z,47.60
2017-02-24T07:37:28.436Z,47.87
2017-02-24T07:38:27.633Z,48.14
2017-02-24T07:39:26.471Z,47.92
2017-02-24T07:40:20.171Z,48.97
2017-02-24T07:41:25.709Z,50.09
2017-02-24T07:42:28.925Z,53.96
2017-02-24T07:43:25.450Z,50.37
2017-02-24T07:44:33.221Z,50.24
2017-02-24T07:45:27.107Z,51.14
2017-02-24T07:46:14.468Z,50.10
2017-02-24T07:47:38.735Z,50.06
2017-02-24T07:48:34.129Z,50.08
2017-02-24T07:49:29.789Z,50.13
2017-02-24T07:50:26.864Z,49.39
2017-02-24T07:51:29.272Z,49.64
2017-02-24T07:52:25.124Z,48.89
2017-02-24T07:53:28.874Z,48.41
2017-02-24T07:54:25.006Z,49.31
2017-02-24T07:55:34.467Z,49.64
2017-02-24T07:56:33.613Z,50.12
2017-02-24T07:57:28.731Z,50.29
2017-02-24T07:58:29.871Z,50.04
2017-02-24T07:59:31.784Z,50.64
2017-02-24T08:00:26.813Z,51.04
2017-02-24T08:01:33.704Z,51.07
2017-02-24T08:02:29.024Z,50.93
2017-02-24T08:03:28.332Z,51.48
2017-02-24T08:04:28.403Z,50.45
2017-02-24T08:05:34.017Z,50.50
2017-02-24T08:06:28.327Z,50.45
2017-02-24T08:07:29.917Z,50.47
2017-02-24T08:08:28.053Z,50.24
2017-02-24T08:09:25.398Z,50.31
2017-02-24T08:10:41.812Z,49.26
2017-02-24T08:11:38.233Z,48.98
2017-02-24T08:12:21.476Z,48.59
2017-02-24T08:13:32.843Z,48.94
2017-02-24T08:14:30.008Z,48.75
2017-02-24T08:15:27.026Z,48.41
2017-02-24T08:16:33.578Z,48.22
2017-02-24T08:17:39.226Z,48.34
2017-02-24T08:18:38.337Z,47.69
2017-02-24T08:19:28.161Z,47.14
2017-02-24T08:20:29.315Z,47.19
2017-02-24T08:21:28.437Z,47.49
2017-02-24T08:23:29.999Z,46.26
2017-02-24T08:24:28.219Z,46.82
2017-02-24T08:25:26.789Z,46.67
2017-02-24T08:26:39.032Z,46.25
2017-02-24T08:27:23.737Z,46.38
2017-02-24T08:28:33.525Z,46.34
2017-02-24T08:29:30.338Z,46.86
2017-02-24T08:30:29.824Z,47.68
2017-02-24T08:31:29.340Z,46.16
2017-02-24T08:32:29.271Z,46.57
2017-02-24T08:33:28.435Z,46.01
2017-02-24T08:34:28.777Z,45.73
2017-02-24T08:35:34.265Z,45.84
2017-02-24T08:36:38.186Z,46.34
2017-02-24T08:37:39.199Z,45.47
2017-02-24T08:38:24.476Z,45.67
2017-02-24T08:39:27.206Z,45.27
2017-02-24T08:40:28.086Z,46.30
2017-02-24T08:41:27.190Z,46.50
2017-02-24T08:42:27.281Z,46.55
2017-02-24T08:43:33.481Z,46.31
2017-02-24T08:44:28.303Z,45.47
2017-02-24T08:45:24.070Z,45.21
2017-02-24T08:46:29.861Z,44.93
2017-02-24T08:47:32.498Z,44.97
2017-02-24T08:48:29.045Z,46.15
2017-02-24T08:49:33.330Z,46.26
2017-02-24T08:50:38.562Z,46.34
2017-02-24T08:51:28.276Z,46.19
2017-02-24T08:52:37.738Z,45.94
2017-02-24T08:53:28.661Z,45.96
2017-02-24T08:54:28.788Z,45.67
2017-02-24T08:55:29.007Z,45.84
2017-02-24T08:56:33.108Z,45.36
2017-02-24T08:57:34.228Z,45.89
2017-02-24T08:58:28.510Z,46.26
2017-02-24T08:59:27.566Z,46.08
2017-02-24T09:00:33.684Z,46.81
2017-02-24T09:01:28.507Z,47.28
2017-02-24T09:02:28.638Z,47.42
2017-02-24T09:03:28.776Z,47.57
2017-02-24T09:04:24.827Z,47.00
2017-02-24T09:05:23.880Z,47.51
2017-02-24T09:06:33.943Z,46.88
2017-02-24T09:07:33.201Z,46.68
2017-02-24T09:08:28.400Z,46.59
2017-02-24T09:09:18.928Z,48.65
2017-02-24T09:10:33.320Z,51.07
2017-02-24T09:11:28.633Z,52.12
2017-02-24T09:12:27.167Z,53.45
2017-02-24T09:13:28.298Z,54.98
2017-02-24T09:14:38.740Z,54.84
2017-02-24T09:15:54.840Z,55.24
2017-02-24T09:16:31.889Z,57.01
2017-02-24T09:17:28.416Z,57.59
2017-02-24T09:18:29.809Z,58.07
2017-02-24T09:19:33.261Z,58.83
2017-02-24T09:20:32.832Z,58.67
2017-02-24T09:21:28.013Z,58.50
2017-02-24T09:22:27.117Z,59.88
2017-02-24T09:23:31.741Z,60.70
2017-02-24T09:24:33.308Z,61.32
2017-02-24T09:25:33.118Z,62.22
2017-02-24T09:26:33.267Z,62.62
2017-02-24T09:27:29.812Z,61.78
2017-02-24T09:28:23.440Z,62.29
2017-02-24T09:29:23.108Z,62.34
2017-02-24T09:30:32.987Z,62.16
2017-02-24T09:31:22.755Z,62.34
2017-02-24T09:32:28.859Z,62.54
2017-02-24T09:33:33.157Z,61.28
2017-02-24T09:34:33.220Z,62.25
2017-02-24T09:35:31.521Z,61.65
2017-02-24T09:36:33.536Z,61.32
2017-02-24T09:37:50.339Z,62.47
2017-02-24T09:38:28.459Z,61.96
2017-02-24T09:39:33.305Z,63.69
2017-02-24T09:40:33.301Z,64.03
2017-02-24T09:41:33.433Z,63.07
2017-02-24T09:42:28.942Z,64.35
2017-02-24T09:43:28.492Z,63.74
2017-02-24T09:44:30.760Z,63.41
2017-02-24T09:45:29.570Z,62.96
2017-02-24T09:46:34.028Z,62.21
2017-02-24T09:47:27.491Z,62.67
2017-02-24T09:48:21.012Z,62.79
2017-02-24T09:49:34.042Z,63.66
2017-02-24T09:50:33.036Z,64.02
2017-02-24T09:51:34.324Z,63.35
2017-02-24T09:52:24.547Z,63.34
2017-02-24T09:53:33.581Z,63.27
2017-02-24T09:54:27.773Z,62.87
2017-02-24T09:57:26.298Z,62.85
2017-02-24T09:58:32.887Z,62.54
2017-02-24T09:59:31.516Z,62.37
2017-02-24T10:00:28.704Z,61.59
2017-02-24T10:01:39.120Z,61.82
2017-02-24T10:02:24.192Z,61.95
2017-02-24T10:03:32.945Z,60.01
2017-02-24T10:04:33.066Z,60.33
2017-02-24T10:05:28.857Z,60.56
2017-02-24T10:06:33.913Z,60.75
2017-02-24T10:07:24.429Z,60.85
2017-02-24T10:08:29.540Z,60.09
2017-02-24T10:09:25.377Z,60.39
2017-02-24T10:10:34.646Z,59.73
2017-02-24T10:11:28.781Z,60.19
2017-02-24T10:12:26.570Z,59.81
2017-02-24T10:13:28.782Z,59.91
2017-02-24T10:14:26.532Z,59.56
2017-02-24T10:15:32.447Z,59.26
2017-02-24T10:16:34.594Z,59.44
2017-02-24T10:17:28.891Z,58.98
2017-02-24T10:18:32.957Z,58.87
2017-02-24T10:19:27.529Z,58.74
2017-02-24T10:20:28.708Z,58.65
2017-02-24T10:21:28.848Z,57.84
2017-02-24T10:22:33.047Z,58.01
2017-02-24T10:23:32.856Z,58.17
2017-02-24T10:24:33.847Z,58.91
2017-02-24T10:25:29.418Z,58.16
2017-02-24T10:26:25.443Z,58.34
2017-02-24T10:27:28.077Z,59.15
2017-02-24T10:28:32.490Z,58.78
2017-02-24T10:29:26.617Z,58.43
2017-02-24T10:30:29.797Z,59.91
2017-02-24T10:31:27.263Z,60.17
2017-02-24T10:32:28.353Z,59.23
2017-02-24T10:33:28.806Z,58.61
2017-02-24T10:34:28.485Z,58.71
2017-02-24T10:35:28.609Z,59.00
2017-02-24T10:36:28.738Z,59.59
2017-02-24T10:37:28.873Z,59.68
2017-02-24T10:38:26.314Z,60.19
2017-02-24T10:39:28.399Z,60.61
2017-02-24T10:40:33.481Z,63.04
2017-02-24T10:41:23.197Z,63.12
2017-02-24T10:42:33.455Z,62.73
2017-02-24T10:43:28.505Z,64.17
2017-02-24T10:44:28.395Z,66.25
2017-02-24T10:45:28.523Z,67.72
2017-02-24T10:46:23.175Z,69.29
2017-02-24T10:47:28.901Z,69.50
2017-02-24T10:48:33.791Z,69.96
2017-02-24T10:49:33.606Z,70.04
2017-02-24T10:50:28.837Z,70.45
2017-02-24T10:51:28.028Z,70.70
2017-02-24T10:52:27.113Z,71.09
2017-02-24T10:53:27.756Z,70.82
2017-02-24T10:54:34.141Z,71.62
2017-02-24T10:55:33.791Z,70.87
2017-02-24T10:56:28.821Z,70.04
2017-02-24T10:57:29.034Z,70.48
2017-02-24T10:58:33.291Z,70.23
2017-02-24T10:59:38.467Z,70.65
2017-02-24T11:00:28.055Z,69.69
2017-02-24T11:01:38.174Z,71.43
2017-02-24T11:02:38.284Z,70.71
2017-02-24T11:03:28.478Z,71.74
2017-02-24T11:04:25.118Z,71.28
2017-02-24T11:05:33.248Z,71.94
2017-02-24T11:06:28.506Z,72.59
2017-02-24T11:07:24.867Z,71.58
2017-02-24T11:08:29.950Z,71.29
2017-02-24T11:09:27.982Z,71.28
2017-02-24T11:10:24.113Z,71.22
2017-02-24T11:11:33.511Z,72.00
2017-02-24T11:12:38.062Z,72.71
2017-02-24T11:13:33.410Z,74.07
2017-02-24T11:14:29.532Z,74.47
2017-02-24T11:15:33.075Z,73.59
2017-02-24T11:16:33.163Z,73.91
2017-02-24T11:17:29.150Z,75.28
2017-02-24T11:18:28.625Z,74.57
2017-02-24T11:19:54.010Z,76.05
2017-02-24T11:20:39.324Z,75.52
2017-02-24T11:21:34.464Z,75.41
2017-02-24T11:22:29.096Z,76.16
2017-02-24T11:23:28.374Z,75.68
2017-02-24T11:24:33.476Z,75.62
2017-02-24T11:25:26.970Z,76.53
2017-02-24T11:26:24.040Z,77.20
2017-02-24T11:27:32.854Z,77.05
2017-02-24T11:28:29.379Z,76.28
2017-02-24T11:29:30.817Z,76.20
2017-02-24T11:30:37.723Z,76.08
2017-02-24T11:31:28.404Z,74.90
2017-02-24T11:32:33.082Z,73.85
2017-02-24T11:33:33.411Z,73.66
2017-02-24T11:34:31.804Z,75.13
2017-02-24T11:35:23.475Z,74.18
2017-02-24T11:36:23.385Z,73.37
2017-02-24T11:37:18.728Z,75.64
2017-02-24T11:38:17.995Z,74.09
2017-02-24T11:39:23.519Z,74.10
2017-02-24T11:40:30.494Z,73.42
2017-02-24T11:41:33.706Z,73.53
2017-02-24T11:42:29.837Z,73.32
2017-02-24T11:43:49.998Z,72.70
2017-02-24T11:44:28.152Z,73.47
2017-02-24T11:45:27.175Z,72.94
2017-02-24T11:46:28.771Z,71.79
2017-02-24T11:47:33.631Z,72.38
2017-02-24T11:48:34.074Z,74.17
2017-02-24T11:49:24.125Z,72.17
2017-02-24T11:50:28.207Z,72.59
2017-02-24T11:51:33.459Z,73.25
2017-02-24T11:52:29.904Z,73.81
2017-02-24T11:53:39.723Z,74.56
2017-02-24T11:54:28.470Z,73.82
2017-02-24T11:55:26.960Z,74.69
2017-02-24T11:56:38.601Z,74.56
2017-02-24T11:57:38.733Z,73.64
2017-02-24T11:58:38.484Z,73.04
2017-02-24T11:59:33.232Z,72.94
2017-02-24T12:00:38.631Z,72.85
2017-02-24T12:01:28.847Z,74.47
2017-02-24T12:02:28.792Z,74.80
2017-02-24T12:03:24.840Z,74.22
2017-02-24T12:04:28.334Z,73.49
2017-02-24T12:05:28.464Z,73.33
2017-02-24T12:06:27.782Z,72.60
2017-02-24T12:07:39.202Z,71.13
2017-02-24T12:08:32.907Z,70.89
2017-02-24T12:09:38.378Z,70.91
2017-02-24T12:10:33.082Z,71.56
2017-02-24T12:11:28.191Z,70.21
2017-02-24T12:12:33.270Z,70.29
2017-02-24T12:13:27.882Z,68.89
2017-02-24T12:14:38.048Z,68.80
2017-02-24T12:15:28.340Z,67.80
2017-02-24T12:16:38.087Z,69.15
2017-02-24T12:17:29.345Z,67.38
2017-02-24T12:18:33.468Z,68.96
2017-02-24T12:19:22.839Z,68.52
2017-02-24T12:20:28.140Z,69.57
2017-02-24T12:21:14.323Z,69.74
2017-02-24T12:22:17.143Z,69.54
2017-02-24T12:23:28.402Z,68.23
2017-02-24T12:24:29.685Z,68.46
2017-02-24T12:25:33.145Z,68.24
2017-02-24T12:26:23.495Z,67.67
2017-02-24T12:27:33.130Z,68.44
2017-02-24T12:28:28.769Z,68.39
2017-02-24T12:29:33.950Z,68.94
2017-02-24T12:30:32.811Z,69.82
2017-02-24T12:31:23.598Z,69.67
2017-02-24T12:32:34.114Z,69.29
2017-02-24T12:33:29.317Z,69.01
2017-02-24T12:34:15.477Z,69.39
2017-02-24T12:35:33.263Z,69.31
2017-02-24T12:36:28.703Z,67.88
2017-02-24T12:37:32.471Z,66.80
2017-02-24T12:38:29.378Z,68.34
2017-02-24T12:39:28.599Z,68.78
2017-02-24T12:40:28.712Z,69.08
2017-02-24T12:41:27.361Z,67.77
2017-02-24T12:42:28.483Z,67.85
2017-02-24T12:43:28.637Z,67.49
2017-02-24T12:44:37.101Z,66.71
2017-02-24T12:45:33.371Z,66.16
2017-02-24T12:46:27.773Z,66.19
2017-02-24T12:47:28.848Z,66.52
2017-02-24T12:48:34.317Z,65.94
2017-02-24T12:49:27.373Z,65.98
2017-02-24T12:50:27.272Z,65.75
2017-02-24T12:51:28.325Z,65.63
2017-02-24T12:52:33.410Z,64.46
2017-02-24T12:53:28.070Z,63.20
2017-02-24T12:54:28.280Z,63.29
2017-02-24T12:55:26.804Z,64.06
2017-02-24T12:56:27.215Z,63.52
2017-02-24T12:57:28.194Z,64.22
2017-02-24T12:58:28.193Z,64.45